Friday, January 18, 2019, 11:56 PM EST
Back to Local

KMTP, Montauk Airport

Location: Montauk, NY, United States Lat: 41.067
Local Time: 11:56 PM EST ( 4:56 GMT) Lon: -71.917
Time Zone: US/Eastern Elev: 6 ft

Show me the last for .
Show Coded

Time T Td Feel RH Dir Speed Gust Alt SLP Vis Weather Sky Remarks
2019-01-18 22:54 38 32 31 78 300° 9 - 30.14 30.14 0 None
2019-01-18 21:54 38 31 33 75 300° 7 - 30.11 30.11 0 None
2019-01-18 20:54 37 34 31 88 270° 8 - 30.10 30.09 0 None
2019-01-18 19:54 37 33 32 85 270° 6 - 30.08 30.08 0 None
2019-01-18 18:54 37 34 32 88 270° 7 - 30.08 30.08 0 6-hr Min Temp (7pm): 37.0°F
6-hr Max Temp (7pm): 43.0°F
2019-01-18 17:54 38 34 36 85 270° 3 - 30.07 30.07 0 None
2019-01-18 16:54 39 35 - 85 - Calm - 30.06 30.06 0 None
2019-01-18 15:54 40 35 - 82 - Calm - 30.04 30.04 0 None
2019-01-18 14:54 40 36 38 85 Variable 3 - 30.05 30.04 0 None
2019-01-18 13:54 41 36 39 82 Variable 3 - 30.04 30.04 0 None
2019-01-18 12:54 42 36 38 78 80° 7 - 30.05 30.05 0 6-hr Precip Total (1pm): 0.01"
6-hr Min Temp (1pm): 35.1°F
6-hr Max Temp (1pm): 42.1°F
2019-01-18 11:54 40 36 35 85 70° 7 - 30.08 30.08 0 None
2019-01-18 10:54 39 35 36 85 80° 5 - 30.11 30.11 0 None
2019-01-18 09:54 38 35 - 89 - Calm - 30.13 30.12 0 6-hr Precip Total (10am): 0.01"
2019-01-18 08:54 36 35 32 96 90° 5 - 30.11 30.11 0 1-hr Precip Total: 0.01"
2019-01-18 07:54 36 34 32 92 90° 5 - 30.12 30.12 0 None
2019-01-18 06:54 35 32 30 88 100° 6 - 30.13 30.12 0 6-hr Min Temp (7am): 33.1°F
6-hr Max Temp (7am): 36.0°F
2019-01-18 05:54 36 28 31 72 90° 6 - 30.13 30.13 0 None
2019-01-18 04:54 35 23 - 61 - Calm - 30.14 30.14 0 None
2019-01-18 03:54 34 23 31 63 110° 3 - 30.16 30.16 0 None
2019-01-18 02:54 34 23 - 63 - Calm - 30.20 30.20 0 None
2019-01-18 01:54 34 22 - 60 - Calm - 30.22 30.22 0 None
2019-01-18 00:54 33 21 28 60 130° 6 - 30.23 30.23 0 6-hr Min Temp (1am): 28.0°F
6-hr Max Temp (1am): 33.1°F

Support USWX by starting your Amazon purchase here.